sensor_id;sensor_type;location;lat;lon;timestamp;P1;durP1;ratioP1;P2;durP2;ratioP2
26303;SDS011;57113;48.680;8.890;2023-02-15T00:01:12;16.50;;;10.25;;
26303;SDS011;57113;48.680;8.890;2023-02-15T00:03:38;17.42;;;10.75;;
26303;SDS011;57113;48.680;8.890;2023-02-15T00:06:04;16.17;;;10.70;;
26303;SDS011;57113;48.680;8.890;2023-02-15T00:08:30;14.85;;;10.27;;
26303;SDS011;57113;48.680;8.890;2023-02-15T00:11:18;15.90;;;10.25;;
26303;SDS011;57113;48.680;8.890;2023-02-15T00:14:10;15.88;;;10.02;;
26303;SDS011;57113;48.680;8.890;2023-02-15T00:16:37;17.17;;;10.00;;
26303;SDS011;57113;48.680;8.890;2023-02-15T00:19:03;16.45;;;9.07;;
26303;SDS011;57113;48.680;8.890;2023-02-15T00:21:30;17.63;;;9.63;;
26303;SDS011;57113;48.680;8.890;2023-02-15T00:23:57;18.30;;;10.13;;
26303;SDS011;57113;48.680;8.890;2023-02-15T00:26:24;16.33;;;10.40;;
26303;SDS011;57113;48.680;8.890;2023-02-15T00:28:50;18.65;;;10.25;;
26303;SDS011;57113;48.680;8.890;2023-02-15T00:31:16;15.48;;;9.98;;
26303;SDS011;57113;48.680;8.890;2023-02-15T00:33:42;24.20;;;11.45;;
26303;SDS011;57113;48.680;8.890;2023-02-15T00:36:09;18.40;;;9.90;;
26303;SDS011;57113;48.680;8.890;2023-02-15T00:38:35;13.73;;;9.38;;
26303;SDS011;57113;48.680;8.890;2023-02-15T00:41:02;15.27;;;9.90;;
26303;SDS011;57113;48.680;8.890;2023-02-15T00:43:29;15.68;;;10.00;;
26303;SDS011;57113;48.680;8.890;2023-02-15T00:45:55;16.75;;;10.27;;
26303;SDS011;57113;48.680;8.890;2023-02-15T00:48:21;15.75;;;9.90;;
26303;SDS011;57113;48.680;8.890;2023-02-15T00:50:58;17.40;;;10.13;;
26303;SDS011;57113;48.680;8.890;2023-02-15T00:53:25;17.45;;;9.48;;
26303;SDS011;57113;48.680;8.890;2023-02-15T00:55:52;13.48;;;8.73;;
26303;SDS011;57113;48.680;8.890;2023-02-15T00:58:18;14.57;;;9.45;;
26303;SDS011;57113;48.680;8.890;2023-02-15T01:00:45;16.67;;;10.23;;
26303;SDS011;57113;48.680;8.890;2023-02-15T01:03:12;14.73;;;9.60;;
26303;SDS011;57113;48.680;8.890;2023-02-15T01:05:38;13.27;;;9.30;;
26303;SDS011;57113;48.680;8.890;2023-02-15T01:08:04;16.35;;;9.20;;
26303;SDS011;57113;48.680;8.890;2023-02-15T01:10:30;15.23;;;8.90;;
26303;SDS011;57113;48.680;8.890;2023-02-15T01:12:56;14.40;;;8.55;;
26303;SDS011;57113;48.680;8.890;2023-02-15T01:15:22;13.10;;;8.10;;
26303;SDS011;57113;48.680;8.890;2023-02-15T01:17:48;13.70;;;8.40;;
26303;SDS011;57113;48.680;8.890;2023-02-15T01:20:22;14.75;;;9.10;;
26303;SDS011;57113;48.680;8.890;2023-02-15T01:22:49;14.65;;;8.48;;
26303;SDS011;57113;48.680;8.890;2023-02-15T01:25:19;12.98;;;8.55;;
26303;SDS011;57113;48.680;8.890;2023-02-15T01:27:45;13.10;;;8.45;;
26303;SDS011;57113;48.680;8.890;2023-02-15T01:30:12;15.82;;;9.05;;
26303;SDS011;57113;48.680;8.890;2023-02-15T01:32:38;14.75;;;8.88;;
26303;SDS011;57113;48.680;8.890;2023-02-15T01:35:05;12.32;;;8.30;;
26303;SDS011;57113;48.680;8.890;2023-02-15T01:37:31;13.60;;;8.70;;
26303;SDS011;57113;48.680;8.890;2023-02-15T01:39:58;13.05;;;8.30;;
26303;SDS011;57113;48.680;8.890;2023-02-15T01:42:25;14.07;;;8.65;;
26303;SDS011;57113;48.680;8.890;2023-02-15T01:44:56;14.35;;;8.70;;
26303;SDS011;57113;48.680;8.890;2023-02-15T01:50:14;12.18;;;7.72;;
26303;SDS011;57113;48.680;8.890;2023-02-15T01:52:47;14.55;;;8.60;;
26303;SDS011;57113;48.680;8.890;2023-02-15T01:55:14;13.68;;;7.70;;
26303;SDS011;57113;48.680;8.890;2023-02-15T01:57:41;13.52;;;8.63;;
26303;SDS011;57113;48.680;8.890;2023-02-15T02:00:07;15.48;;;8.80;;
26303;SDS011;57113;48.680;8.890;2023-02-15T02:02:34;12.25;;;7.38;;
26303;SDS011;57113;48.680;8.890;2023-02-15T02:05:00;13.63;;;8.43;;
26303;SDS011;57113;48.680;8.890;2023-02-15T02:07:31;14.23;;;8.75;;
26303;SDS011;57113;48.680;8.890;2023-02-15T02:09:58;12.60;;;7.90;;
26303;SDS011;57113;48.680;8.890;2023-02-15T02:12:25;14.80;;;8.43;;
26303;SDS011;57113;48.680;8.890;2023-02-15T02:14:51;14.52;;;7.97;;
26303;SDS011;57113;48.680;8.890;2023-02-15T02:17:22;11.57;;;7.55;;
26303;SDS011;57113;48.680;8.890;2023-02-15T02:30:48;13.18;;;8.23;;
26303;SDS011;57113;48.680;8.890;2023-02-15T02:36:15;12.93;;;7.57;;
26303;SDS011;57113;48.680;8.890;2023-02-15T02:41:12;12.85;;;7.88;;
26303;SDS011;57113;48.680;8.890;2023-02-15T02:43:48;12.65;;;7.70;;
26303;SDS011;57113;48.680;8.890;2023-02-15T02:46:22;14.35;;;7.50;;
26303;SDS011;57113;48.680;8.890;2023-02-15T02:48:50;11.25;;;7.45;;
26303;SDS011;57113;48.680;8.890;2023-02-15T02:51:16;12.52;;;8.23;;
26303;SDS011;57113;48.680;8.890;2023-02-15T02:53:47;13.23;;;7.88;;
26303;SDS011;57113;48.680;8.890;2023-02-15T02:56:20;14.85;;;8.10;;
26303;SDS011;57113;48.680;8.890;2023-02-15T02:59:04;13.35;;;8.15;;
26303;SDS011;57113;48.680;8.890;2023-02-15T03:01:33;12.50;;;8.05;;
26303;SDS011;57113;48.680;8.890;2023-02-15T03:04:05;11.43;;;7.25;;
26303;SDS011;57113;48.680;8.890;2023-02-15T03:06:39;12.00;;;7.50;;
26303;SDS011;57113;48.680;8.890;2023-02-15T03:09:09;12.55;;;7.57;;
26303;SDS011;57113;48.680;8.890;2023-02-15T03:11:40;11.52;;;7.18;;
26303;SDS011;57113;48.680;8.890;2023-02-15T03:14:06;11.75;;;7.45;;
26303;SDS011;57113;48.680;8.890;2023-02-15T03:16:32;11.00;;;7.07;;
26303;SDS011;57113;48.680;8.890;2023-02-15T03:19:01;14.48;;;7.95;;
26303;SDS011;57113;48.680;8.890;2023-02-15T03:21:45;11.63;;;7.28;;
26303;SDS011;57113;48.680;8.890;2023-02-15T03:24:16;13.23;;;7.43;;
26303;SDS011;57113;48.680;8.890;2023-02-15T03:26:46;13.07;;;7.50;;
26303;SDS011;57113;48.680;8.890;2023-02-15T03:29:13;11.80;;;7.05;;
26303;SDS011;57113;48.680;8.890;2023-02-15T03:31:41;12.38;;;7.07;;
26303;SDS011;57113;48.680;8.890;2023-02-15T03:34:10;12.75;;;7.32;;
26303;SDS011;57113;48.680;8.890;2023-02-15T03:41:55;11.05;;;6.90;;
26303;SDS011;57113;48.680;8.890;2023-02-15T03:44:29;10.50;;;6.78;;
26303;SDS011;57113;48.680;8.890;2023-02-15T03:46:58;11.65;;;7.30;;
26303;SDS011;57113;48.680;8.890;2023-02-15T03:49:31;13.05;;;6.88;;
26303;SDS011;57113;48.680;8.890;2023-02-15T03:52:00;11.65;;;6.90;;
26303;SDS011;57113;48.680;8.890;2023-02-15T03:54:28;11.60;;;6.88;;
26303;SDS011;57113;48.680;8.890;2023-02-15T03:57:12;12.27;;;7.35;;
26303;SDS011;57113;48.680;8.890;2023-02-15T03:59:57;10.02;;;6.65;;
26303;SDS011;57113;48.680;8.890;2023-02-15T04:03:01;12.18;;;6.65;;
26303;SDS011;57113;48.680;8.890;2023-02-15T04:05:30;12.85;;;7.30;;
26303;SDS011;57113;48.680;8.890;2023-02-15T04:07:56;12.77;;;6.35;;
26303;SDS011;57113;48.680;8.890;2023-02-15T04:10:22;10.40;;;7.10;;
26303;SDS011;57113;48.680;8.890;2023-02-15T04:13:07;13.52;;;7.40;;
26303;SDS011;57113;48.680;8.890;2023-02-15T04:15:33;12.35;;;6.90;;
26303;SDS011;57113;48.680;8.890;2023-02-15T04:20:44;11.32;;;7.03;;
26303;SDS011;57113;48.680;8.890;2023-02-15T04:23:29;12.10;;;6.45;;
26303;SDS011;57113;48.680;8.890;2023-02-15T04:28:39;10.25;;;6.50;;
26303;SDS011;57113;48.680;8.890;2023-02-15T04:31:05;11.32;;;6.50;;
26303;SDS011;57113;48.680;8.890;2023-02-15T04:33:31;10.30;;;6.40;;
26303;SDS011;57113;48.680;8.890;2023-02-15T04:35:58;10.82;;;6.78;;
26303;SDS011;57113;48.680;8.890;2023-02-15T04:38:24;11.65;;;7.13;;
26303;SDS011;57113;48.680;8.890;2023-02-15T04:40:50;10.07;;;6.80;;
26303;SDS011;57113;48.680;8.890;2023-02-15T04:43:17;9.98;;;6.57;;
26303;SDS011;57113;48.680;8.890;2023-02-15T04:45:47;11.70;;;7.32;;
26303;SDS011;57113;48.680;8.890;2023-02-15T04:48:14;9.82;;;6.40;;
26303;SDS011;57113;48.680;8.890;2023-02-15T04:50:40;10.55;;;6.72;;
26303;SDS011;57113;48.680;8.890;2023-02-15T04:53:06;10.02;;;6.28;;
26303;SDS011;57113;48.680;8.890;2023-02-15T04:55:32;10.50;;;6.88;;
26303;SDS011;57113;48.680;8.890;2023-02-15T04:57:58;12.13;;;7.05;;
26303;SDS011;57113;48.680;8.890;2023-02-15T05:00:24;9.40;;;6.47;;
26303;SDS011;57113;48.680;8.890;2023-02-15T05:02:50;12.05;;;6.72;;
26303;SDS011;57113;48.680;8.890;2023-02-15T05:05:16;12.80;;;6.65;;
26303;SDS011;57113;48.680;8.890;2023-02-15T05:07:42;10.40;;;6.55;;
26303;SDS011;57113;48.680;8.890;2023-02-15T05:10:08;11.43;;;6.22;;
26303;SDS011;57113;48.680;8.890;2023-02-15T05:12:34;10.57;;;6.72;;
26303;SDS011;57113;48.680;8.890;2023-02-15T05:15:00;12.63;;;6.47;;
26303;SDS011;57113;48.680;8.890;2023-02-15T05:17:26;9.70;;;6.05;;
26303;SDS011;57113;48.680;8.890;2023-02-15T05:19:52;11.60;;;6.78;;
26303;SDS011;57113;48.680;8.890;2023-02-15T05:22:18;11.55;;;6.63;;
26303;SDS011;57113;48.680;8.890;2023-02-15T05:24:45;9.60;;;6.43;;
26303;SDS011;57113;48.680;8.890;2023-02-15T05:27:29;10.95;;;6.65;;
26303;SDS011;57113;48.680;8.890;2023-02-15T05:30:14;10.57;;;6.43;;
26303;SDS011;57113;48.680;8.890;2023-02-15T05:32:40;9.20;;;5.75;;
26303;SDS011;57113;48.680;8.890;2023-02-15T05:35:06;9.43;;;6.45;;
26303;SDS011;57113;48.680;8.890;2023-02-15T05:37:32;10.27;;;6.68;;
26303;SDS011;57113;48.680;8.890;2023-02-15T05:39:59;12.98;;;7.03;;
26303;SDS011;57113;48.680;8.890;2023-02-15T05:42:25;10.23;;;6.70;;
26303;SDS011;57113;48.680;8.890;2023-02-15T05:44:51;9.93;;;6.68;;
26303;SDS011;57113;48.680;8.890;2023-02-15T05:47:17;14.52;;;9.35;;
26303;SDS011;57113;48.680;8.890;2023-02-15T05:49:43;16.75;;;9.00;;
26303;SDS011;57113;48.680;8.890;2023-02-15T05:52:09;16.67;;;8.98;;
26303;SDS011;57113;48.680;8.890;2023-02-15T05:54:37;14.50;;;9.02;;
26303;SDS011;57113;48.680;8.890;2023-02-15T05:57:03;15.88;;;9.45;;
26303;SDS011;57113;48.680;8.890;2023-02-15T05:59:29;14.57;;;8.60;;
26303;SDS011;57113;48.680;8.890;2023-02-15T06:01:55;12.93;;;8.38;;
26303;SDS011;57113;48.680;8.890;2023-02-15T06:04:20;19.17;;;8.60;;
26303;SDS011;57113;48.680;8.890;2023-02-15T06:06:47;14.20;;;8.55;;
26303;SDS011;57113;48.680;8.890;2023-02-15T06:09:13;13.55;;;8.40;;
26303;SDS011;57113;48.680;8.890;2023-02-15T06:11:40;13.13;;;7.78;;
26303;SDS011;57113;48.680;8.890;2023-02-15T06:14:06;14.15;;;8.75;;
26303;SDS011;57113;48.680;8.890;2023-02-15T06:16:32;13.10;;;7.93;;
26303;SDS011;57113;48.680;8.890;2023-02-15T06:18:58;14.63;;;8.00;;
26303;SDS011;57113;48.680;8.890;2023-02-15T06:21:24;12.57;;;7.55;;
26303;SDS011;57113;48.680;8.890;2023-02-15T06:23:50;13.43;;;8.02;;
26303;SDS011;57113;48.680;8.890;2023-02-15T06:26:16;14.27;;;8.05;;
26303;SDS011;57113;48.680;8.890;2023-02-15T06:28:42;11.38;;;7.32;;
26303;SDS011;57113;48.680;8.890;2023-02-15T06:31:08;11.00;;;7.47;;
26303;SDS011;57113;48.680;8.890;2023-02-15T06:33:35;12.88;;;7.70;;
26303;SDS011;57113;48.680;8.890;2023-02-15T06:36:01;13.13;;;7.18;;
26303;SDS011;57113;48.680;8.890;2023-02-15T06:38:28;11.10;;;7.20;;
26303;SDS011;57113;48.680;8.890;2023-02-15T06:40:54;12.68;;;7.75;;
26303;SDS011;57113;48.680;8.890;2023-02-15T06:43:20;12.30;;;7.65;;
26303;SDS011;57113;48.680;8.890;2023-02-15T06:45:46;12.15;;;7.25;;
26303;SDS011;57113;48.680;8.890;2023-02-15T06:48:12;12.80;;;7.30;;
26303;SDS011;57113;48.680;8.890;2023-02-15T06:50:38;12.80;;;7.63;;
26303;SDS011;57113;48.680;8.890;2023-02-15T06:53:05;9.43;;;6.25;;
26303;SDS011;57113;48.680;8.890;2023-02-15T06:55:30;13.65;;;8.15;;
26303;SDS011;57113;48.680;8.890;2023-02-15T06:57:56;13.50;;;7.00;;
26303;SDS011;57113;48.680;8.890;2023-02-15T07:00:22;12.88;;;7.28;;
26303;SDS011;57113;48.680;8.890;2023-02-15T07:02:55;11.32;;;6.85;;
26303;SDS011;57113;48.680;8.890;2023-02-15T07:05:22;12.10;;;6.53;;
26303;SDS011;57113;48.680;8.890;2023-02-15T07:07:48;11.57;;;7.13;;
26303;SDS011;57113;48.680;8.890;2023-02-15T07:10:14;12.73;;;7.10;;
26303;SDS011;57113;48.680;8.890;2023-02-15T07:12:40;13.77;;;7.18;;
26303;SDS011;57113;48.680;8.890;2023-02-15T07:15:07;11.95;;;6.60;;
26303;SDS011;57113;48.680;8.890;2023-02-15T07:17:34;9.02;;;6.38;;
26303;SDS011;57113;48.680;8.890;2023-02-15T07:20:00;11.07;;;6.75;;
26303;SDS011;57113;48.680;8.890;2023-02-15T07:22:26;10.70;;;6.75;;
26303;SDS011;57113;48.680;8.890;2023-02-15T07:24:52;9.85;;;6.53;;
26303;SDS011;57113;48.680;8.890;2023-02-15T07:27:19;11.63;;;6.65;;
26303;SDS011;57113;48.680;8.890;2023-02-15T07:29:46;8.95;;;6.15;;
26303;SDS011;57113;48.680;8.890;2023-02-15T07:32:12;9.75;;;6.22;;
26303;SDS011;57113;48.680;8.890;2023-02-15T07:34:38;10.32;;;6.13;;
26303;SDS011;57113;48.680;8.890;2023-02-15T07:37:04;9.85;;;6.03;;
26303;SDS011;57113;48.680;8.890;2023-02-15T07:39:30;11.02;;;6.85;;
26303;SDS011;57113;48.680;8.890;2023-02-15T07:41:55;9.05;;;6.22;;
26303;SDS011;57113;48.680;8.890;2023-02-15T07:44:21;11.32;;;6.90;;
26303;SDS011;57113;48.680;8.890;2023-02-15T07:46:47;8.70;;;6.00;;
26303;SDS011;57113;48.680;8.890;2023-02-15T07:49:14;10.30;;;6.82;;
26303;SDS011;57113;48.680;8.890;2023-02-15T07:51:40;10.15;;;6.18;;
26303;SDS011;57113;48.680;8.890;2023-02-15T07:54:06;9.52;;;6.35;;
26303;SDS011;57113;48.680;8.890;2023-02-15T07:56:32;11.02;;;6.28;;
26303;SDS011;57113;48.680;8.890;2023-02-15T07:58:58;10.30;;;6.50;;
26303;SDS011;57113;48.680;8.890;2023-02-15T08:01:31;11.02;;;5.57;;
26303;SDS011;57113;48.680;8.890;2023-02-15T08:03:58;10.38;;;6.05;;
26303;SDS011;57113;48.680;8.890;2023-02-15T08:06:25;10.25;;;6.10;;
26303;SDS011;57113;48.680;8.890;2023-02-15T08:08:52;13.02;;;6.22;;
26303;SDS011;57113;48.680;8.890;2023-02-15T08:11:19;8.88;;;5.78;;
26303;SDS011;57113;48.680;8.890;2023-02-15T08:13:57;12.02;;;5.80;;
26303;SDS011;57113;48.680;8.890;2023-02-15T08:18:56;9.88;;;5.85;;
26303;SDS011;57113;48.680;8.890;2023-02-15T08:21:23;8.82;;;5.55;;
26303;SDS011;57113;48.680;8.890;2023-02-15T08:23:50;8.93;;;5.40;;
26303;SDS011;57113;48.680;8.890;2023-02-15T08:26:16;16.52;;;9.27;;
26303;SDS011;57113;48.680;8.890;2023-02-15T08:28:42;16.52;;;9.77;;
26303;SDS011;57113;48.680;8.890;2023-02-15T08:31:10;15.23;;;9.38;;
26303;SDS011;57113;48.680;8.890;2023-02-15T08:33:37;15.43;;;9.80;;
26303;SDS011;57113;48.680;8.890;2023-02-15T08:36:08;16.88;;;9.20;;
26303;SDS011;57113;48.680;8.890;2023-02-15T08:38:34;14.55;;;9.00;;
26303;SDS011;57113;48.680;8.890;2023-02-15T08:46:12;18.92;;;8.40;;
26303;SDS011;57113;48.680;8.890;2023-02-15T08:48:39;15.73;;;9.23;;
26303;SDS011;57113;48.680;8.890;2023-02-15T08:51:09;12.45;;;8.00;;
26303;SDS011;57113;48.680;8.890;2023-02-15T08:53:36;13.75;;;8.30;;
26303;SDS011;57113;48.680;8.890;2023-02-15T08:56:03;11.38;;;7.88;;
26303;SDS011;57113;48.680;8.890;2023-02-15T08:58:29;13.07;;;7.85;;
26303;SDS011;57113;48.680;8.890;2023-02-15T09:00:56;14.95;;;7.90;;
26303;SDS011;57113;48.680;8.890;2023-02-15T09:03:22;12.93;;;8.38;;
26303;SDS011;57113;48.680;8.890;2023-02-15T09:05:48;14.65;;;7.78;;
26303;SDS011;57113;48.680;8.890;2023-02-15T09:08:14;12.07;;;7.50;;
26303;SDS011;57113;48.680;8.890;2023-02-15T09:10:41;11.57;;;7.30;;
26303;SDS011;57113;48.680;8.890;2023-02-15T09:13:07;13.10;;;7.32;;
26303;SDS011;57113;48.680;8.890;2023-02-15T09:15:33;10.75;;;6.85;;
26303;SDS011;57113;48.680;8.890;2023-02-15T09:17:59;12.05;;;7.43;;
26303;SDS011;57113;48.680;8.890;2023-02-15T09:20:29;11.63;;;6.70;;
26303;SDS011;57113;48.680;8.890;2023-02-15T09:22:55;12.00;;;7.35;;
26303;SDS011;57113;48.680;8.890;2023-02-15T09:25:21;10.95;;;7.07;;
26303;SDS011;57113;48.680;8.890;2023-02-15T09:27:47;10.65;;;6.75;;
26303;SDS011;57113;48.680;8.890;2023-02-15T09:30:13;9.43;;;6.35;;
26303;SDS011;57113;48.680;8.890;2023-02-15T09:32:39;10.13;;;6.32;;
26303;SDS011;57113;48.680;8.890;2023-02-15T09:35:05;11.93;;;6.38;;
26303;SDS011;57113;48.680;8.890;2023-02-15T09:37:31;10.05;;;6.57;;
26303;SDS011;57113;48.680;8.890;2023-02-15T09:39:57;11.02;;;6.60;;
26303;SDS011;57113;48.680;8.890;2023-02-15T09:42:31;9.73;;;6.57;;
26303;SDS011;57113;48.680;8.890;2023-02-15T10:06:23;9.60;;;5.60;;
26303;SDS011;57113;48.680;8.890;2023-02-15T10:09:14;8.73;;;5.38;;
26303;SDS011;57113;48.680;8.890;2023-02-15T10:11:49;8.60;;;5.03;;
26303;SDS011;57113;48.680;8.890;2023-02-15T10:14:22;7.18;;;5.20;;
26303;SDS011;57113;48.680;8.890;2023-02-15T10:17:00;8.27;;;5.45;;
26303;SDS011;57113;48.680;8.890;2023-02-15T10:27:04;8.15;;;5.63;;
26303;SDS011;57113;48.680;8.890;2023-02-15T10:29:37;8.18;;;5.15;;
26303;SDS011;57113;48.680;8.890;2023-02-15T10:34:39;8.38;;;5.35;;
26303;SDS011;57113;48.680;8.890;2023-02-15T10:45:29;7.30;;;4.75;;
26303;SDS011;57113;48.680;8.890;2023-02-15T10:50:46;7.18;;;4.93;;
26303;SDS011;57113;48.680;8.890;2023-02-15T10:58:33;10.57;;;5.22;;
26303;SDS011;57113;48.680;8.890;2023-02-15T11:06:29;8.00;;;4.55;;
26303;SDS011;57113;48.680;8.890;2023-02-15T11:08:57;9.35;;;5.30;;
26303;SDS011;57113;48.680;8.890;2023-02-15T11:11:36;8.02;;;4.40;;
26303;SDS011;57113;48.680;8.890;2023-02-15T11:14:14;6.55;;;4.10;;
26303;SDS011;57113;48.680;8.890;2023-02-15T11:16:43;7.75;;;4.05;;
26303;SDS011;57113;48.680;8.890;2023-02-15T11:19:19;7.45;;;4.13;;
26303;SDS011;57113;48.680;8.890;2023-02-15T11:21:47;7.80;;;4.30;;
26303;SDS011;57113;48.680;8.890;2023-02-15T11:24:16;6.72;;;4.15;;
26303;SDS011;57113;48.680;8.890;2023-02-15T11:26:54;12.48;;;4.20;;
26303;SDS011;57113;48.680;8.890;2023-02-15T11:31:54;7.32;;;3.40;;
26303;SDS011;57113;48.680;8.890;2023-02-15T11:34:37;5.72;;;3.47;;
26303;SDS011;57113;48.680;8.890;2023-02-15T11:37:09;6.68;;;3.42;;
26303;SDS011;57113;48.680;8.890;2023-02-15T11:39:36;5.55;;;3.65;;
26303;SDS011;57113;48.680;8.890;2023-02-15T11:42:04;6.40;;;3.90;;
26303;SDS011;57113;48.680;8.890;2023-02-15T11:44:34;6.25;;;4.00;;
26303;SDS011;57113;48.680;8.890;2023-02-15T11:47:01;6.00;;;3.47;;
26303;SDS011;57113;48.680;8.890;2023-02-15T11:49:31;5.22;;;3.45;;
26303;SDS011;57113;48.680;8.890;2023-02-15T11:51:58;4.32;;;3.17;;
26303;SDS011;57113;48.680;8.890;2023-02-15T11:54:33;7.28;;;3.58;;
26303;SDS011;57113;48.680;8.890;2023-02-15T11:59:56;5.50;;;3.38;;
26303;SDS011;57113;48.680;8.890;2023-02-15T12:02:24;6.43;;;3.72;;
26303;SDS011;57113;48.680;8.890;2023-02-15T12:04:54;5.35;;;3.13;;
26303;SDS011;57113;48.680;8.890;2023-02-15T12:07:28;5.15;;;3.25;;
26303;SDS011;57113;48.680;8.890;2023-02-15T12:12:24;7.28;;;3.42;;
26303;SDS011;57113;48.680;8.890;2023-02-15T12:14:54;5.28;;;3.22;;
26303;SDS011;57113;48.680;8.890;2023-02-15T12:17:21;4.82;;;3.00;;
26303;SDS011;57113;48.680;8.890;2023-02-15T12:19:49;5.95;;;3.08;;
26303;SDS011;57113;48.680;8.890;2023-02-15T12:22:24;5.40;;;3.25;;
26303;SDS011;57113;48.680;8.890;2023-02-15T12:24:52;5.18;;;3.47;;
26303;SDS011;57113;48.680;8.890;2023-02-15T12:27:21;7.07;;;3.15;;
26303;SDS011;57113;48.680;8.890;2023-02-15T12:29:55;5.53;;;3.00;;
26303;SDS011;57113;48.680;8.890;2023-02-15T12:32:24;4.97;;;3.08;;
26303;SDS011;57113;48.680;8.890;2023-02-15T12:34:50;4.28;;;2.90;;
26303;SDS011;57113;48.680;8.890;2023-02-15T12:37:28;5.28;;;3.10;;
26303;SDS011;57113;48.680;8.890;2023-02-15T12:40:00;3.92;;;2.63;;
26303;SDS011;57113;48.680;8.890;2023-02-15T12:42:27;6.30;;;3.28;;
26303;SDS011;57113;48.680;8.890;2023-02-15T12:44:55;3.95;;;2.92;;
26303;SDS011;57113;48.680;8.890;2023-02-15T12:47:22;4.30;;;2.72;;
26303;SDS011;57113;48.680;8.890;2023-02-15T12:52:30;5.35;;;2.80;;
26303;SDS011;57113;48.680;8.890;2023-02-15T12:54:58;5.03;;;2.70;;
26303;SDS011;57113;48.680;8.890;2023-02-15T12:57:35;4.32;;;2.85;;
26303;SDS011;57113;48.680;8.890;2023-02-15T13:00:44;4.68;;;2.67;;
26303;SDS011;57113;48.680;8.890;2023-02-15T13:02:53;4.25;;;2.60;;
26303;SDS011;57113;48.680;8.890;2023-02-15T13:05:39;4.68;;;3.00;;
26303;SDS011;57113;48.680;8.890;2023-02-15T13:08:28;4.70;;;2.53;;
26303;SDS011;57113;48.680;8.890;2023-02-15T13:13:20;4.25;;;2.53;;
26303;SDS011;57113;48.680;8.890;2023-02-15T13:15:48;4.32;;;2.25;;
26303;SDS011;57113;48.680;8.890;2023-02-15T13:18:27;3.63;;;2.67;;
26303;SDS011;57113;48.680;8.890;2023-02-15T13:20:54;5.32;;;2.50;;
26303;SDS011;57113;48.680;8.890;2023-02-15T13:23:27;5.72;;;2.47;;
26303;SDS011;57113;48.680;8.890;2023-02-15T13:25:55;4.75;;;2.72;;
26303;SDS011;57113;48.680;8.890;2023-02-15T13:28:22;3.35;;;2.35;;
26303;SDS011;57113;48.680;8.890;2023-02-15T13:30:50;4.07;;;2.50;;
26303;SDS011;57113;48.680;8.890;2023-02-15T13:33:22;3.47;;;2.25;;
26303;SDS011;57113;48.680;8.890;2023-02-15T13:38:46;4.07;;;2.53;;
26303;SDS011;57113;48.680;8.890;2023-02-15T13:41:14;3.47;;;2.42;;
26303;SDS011;57113;48.680;8.890;2023-02-15T13:43:47;3.83;;;2.40;;
26303;SDS011;57113;48.680;8.890;2023-02-15T13:59:19;6.53;;;2.28;;
26303;SDS011;57113;48.680;8.890;2023-02-15T14:07:12;3.00;;;2.30;;
26303;SDS011;57113;48.680;8.890;2023-02-15T14:12:26;3.08;;;2.30;;
26303;SDS011;57113;48.680;8.890;2023-02-15T14:20:17;4.10;;;2.28;;
26303;SDS011;57113;48.680;8.890;2023-02-15T14:22:46;4.63;;;2.60;;
26303;SDS011;57113;48.680;8.890;2023-02-15T14:25:27;4.07;;;2.20;;
26303;SDS011;57113;48.680;8.890;2023-02-15T14:28:11;3.78;;;2.40;;
26303;SDS011;57113;48.680;8.890;2023-02-15T14:30:39;3.70;;;2.20;;
26303;SDS011;57113;48.680;8.890;2023-02-15T14:33:19;3.92;;;2.22;;
26303;SDS011;57113;48.680;8.890;2023-02-15T14:35:49;3.75;;;2.53;;
26303;SDS011;57113;48.680;8.890;2023-02-15T14:38:21;3.35;;;2.13;;
26303;SDS011;57113;48.680;8.890;2023-02-15T14:40:51;3.55;;;2.40;;
26303;SDS011;57113;48.680;8.890;2023-02-15T14:46:03;3.35;;;2.05;;
26303;SDS011;57113;48.680;8.890;2023-02-15T14:48:37;3.13;;;2.40;;
26303;SDS011;57113;48.680;8.890;2023-02-15T14:51:04;4.00;;;2.08;;
26303;SDS011;57113;48.680;8.890;2023-02-15T15:01:27;3.35;;;2.10;;
26303;SDS011;57113;48.680;8.890;2023-02-15T15:03:55;3.47;;;2.20;;
26303;SDS011;57113;48.680;8.890;2023-02-15T15:06:26;3.00;;;2.03;;
26303;SDS011;57113;48.680;8.890;2023-02-15T15:08:55;3.67;;;2.30;;
26303;SDS011;57113;48.680;8.890;2023-02-15T15:14:00;5.30;;;2.47;;
26303;SDS011;57113;48.680;8.890;2023-02-15T15:19:11;4.13;;;2.50;;
26303;SDS011;57113;48.680;8.890;2023-02-15T15:29:38;2.47;;;1.67;;
26303;SDS011;57113;48.680;8.890;2023-02-15T15:32:04;3.05;;;2.10;;
26303;SDS011;57113;48.680;8.890;2023-02-15T15:50:16;12.18;;;5.78;;
26303;SDS011;57113;48.680;8.890;2023-02-15T15:52:44;7.65;;;5.45;;
26303;SDS011;57113;48.680;8.890;2023-02-15T15:55:14;8.13;;;4.75;;
26303;SDS011;57113;48.680;8.890;2023-02-15T15:57:41;12.73;;;5.15;;
26303;SDS011;57113;48.680;8.890;2023-02-15T16:02:52;11.75;;;4.97;;
26303;SDS011;57113;48.680;8.890;2023-02-15T16:05:20;9.05;;;5.07;;
26303;SDS011;57113;48.680;8.890;2023-02-15T16:07:46;10.77;;;5.10;;
26303;SDS011;57113;48.680;8.890;2023-02-15T16:10:20;9.57;;;5.53;;
26303;SDS011;57113;48.680;8.890;2023-02-15T16:12:46;8.73;;;5.03;;
26303;SDS011;57113;48.680;8.890;2023-02-15T16:15:14;9.10;;;5.15;;
26303;SDS011;57113;48.680;8.890;2023-02-15T16:17:41;9.70;;;4.60;;
26303;SDS011;57113;48.680;8.890;2023-02-15T16:22:37;7.55;;;4.50;;
26303;SDS011;57113;48.680;8.890;2023-02-15T16:27:40;8.95;;;4.78;;
26303;SDS011;57113;48.680;8.890;2023-02-15T16:32:45;7.07;;;4.20;;
26303;SDS011;57113;48.680;8.890;2023-02-15T16:35:15;8.43;;;4.75;;
26303;SDS011;57113;48.680;8.890;2023-02-15T16:37:41;8.77;;;4.20;;
26303;SDS011;57113;48.680;8.890;2023-02-15T16:40:24;7.78;;;4.72;;
26303;SDS011;57113;48.680;8.890;2023-02-15T16:42:51;6.77;;;4.40;;
26303;SDS011;57113;48.680;8.890;2023-02-15T16:45:18;9.05;;;4.30;;
26303;SDS011;57113;48.680;8.890;2023-02-15T16:47:46;5.97;;;4.13;;
26303;SDS011;57113;48.680;8.890;2023-02-15T16:50:18;7.40;;;4.30;;
26303;SDS011;57113;48.680;8.890;2023-02-15T16:52:45;7.95;;;4.25;;
26303;SDS011;57113;48.680;8.890;2023-02-15T16:55:19;7.32;;;4.03;;
26303;SDS011;57113;48.680;8.890;2023-02-15T16:57:47;7.00;;;3.88;;
26303;SDS011;57113;48.680;8.890;2023-02-15T17:00:20;8.30;;;3.50;;
26303;SDS011;57113;48.680;8.890;2023-02-15T17:02:57;7.15;;;3.90;;
26303;SDS011;57113;48.680;8.890;2023-02-15T17:05:25;6.47;;;3.95;;
26303;SDS011;57113;48.680;8.890;2023-02-15T17:08:06;7.38;;;3.80;;
26303;SDS011;57113;48.680;8.890;2023-02-15T17:10:37;6.88;;;4.07;;
26303;SDS011;57113;48.680;8.890;2023-02-15T17:13:10;6.15;;;3.70;;
26303;SDS011;57113;48.680;8.890;2023-02-15T17:15:37;6.18;;;3.75;;
26303;SDS011;57113;48.680;8.890;2023-02-15T17:18:25;7.32;;;4.20;;
26303;SDS011;57113;48.680;8.890;2023-02-15T17:20:51;8.23;;;4.03;;
26303;SDS011;57113;48.680;8.890;2023-02-15T17:25:49;22.25;;;11.63;;
26303;SDS011;57113;48.680;8.890;2023-02-15T17:28:17;21.27;;;10.93;;
26303;SDS011;57113;48.680;8.890;2023-02-15T17:30:44;29.30;;;11.77;;
26303;SDS011;57113;48.680;8.890;2023-02-15T17:33:21;20.70;;;9.98;;
26303;SDS011;57113;48.680;8.890;2023-02-15T17:36:04;20.98;;;10.43;;
26303;SDS011;57113;48.680;8.890;2023-02-15T17:38:31;21.48;;;10.68;;
26303;SDS011;57113;48.680;8.890;2023-02-15T17:40:58;18.95;;;9.38;;
26303;SDS011;57113;48.680;8.890;2023-02-15T17:43:24;21.63;;;10.95;;
26303;SDS011;57113;48.680;8.890;2023-02-15T17:45:51;19.63;;;10.15;;
26303;SDS011;57113;48.680;8.890;2023-02-15T17:48:21;16.67;;;9.80;;
26303;SDS011;57113;48.680;8.890;2023-02-15T17:50:48;18.70;;;10.18;;
26303;SDS011;57113;48.680;8.890;2023-02-15T17:53:15;21.13;;;9.63;;
26303;SDS011;57113;48.680;8.890;2023-02-15T17:55:42;17.60;;;9.75;;